createdAt,value
2023-03-31T00:00:51.481Z,100071.59
2023-03-31T00:03:22.247Z,100062.53
2023-03-31T00:05:53.444Z,100054.81
2023-03-31T00:08:21.183Z,100057.31
2023-03-31T00:10:48.513Z,100052.59
2023-03-31T00:13:15.501Z,100035.69
2023-03-31T00:15:42.046Z,100039.53
2023-03-31T00:18:08.482Z,100041.88
2023-03-31T00:20:37.865Z,100034.72
2023-03-31T00:23:10.610Z,100012.84
2023-03-31T00:25:43.670Z,99996.78
2023-03-31T00:28:10.566Z,100006.94
2023-03-31T00:30:36.988Z,99998.97
2023-03-31T00:33:03.550Z,99994.84
2023-03-31T00:35:30.110Z,99984.38
2023-03-31T00:37:58.069Z,99973.53
2023-03-31T00:40:24.674Z,99975.44
2023-03-31T00:42:51.077Z,99955.50
2023-03-31T00:45:24.913Z,99951.00
2023-03-31T00:48:03.197Z,99947.13
2023-03-31T00:50:34.335Z,99938.31
2023-03-31T00:53:11.147Z,99946.59
2023-03-31T00:55:43.904Z,99919.41
2023-03-31T00:58:14.526Z,99937.94
2023-03-31T01:00:42.677Z,99933.13
2023-03-31T01:03:10.524Z,99938.22
2023-03-31T01:05:40.997Z,99923.09
2023-03-31T01:08:07.946Z,99914.84
2023-03-31T01:10:41.667Z,99912.91
2023-03-31T01:13:10.748Z,99918.81
2023-03-31T01:15:38.355Z,99899.56
2023-03-31T01:18:10.758Z,99899.28
2023-03-31T01:21:14.613Z,99889.63
2023-03-31T01:24:18.769Z,99893.09
2023-03-31T01:27:04.065Z,99879.19
2023-03-31T01:29:45.844Z,99872.31
2023-03-31T01:32:34.071Z,99877.41
2023-03-31T01:35:33.567Z,99871.50
2023-03-31T01:38:18.884Z,99876.56
2023-03-31T01:41:05.800Z,99868.34
2023-03-31T01:43:53.842Z,99859.69
2023-03-31T01:46:43.750Z,99856.41
2023-03-31T01:49:34.648Z,99863.94
2023-03-31T01:52:01.763Z,99857.91
2023-03-31T01:54:39.405Z,99845.66
2023-03-31T01:57:20.932Z,99838.50
2023-03-31T02:00:12.740Z,99838.09
2023-03-31T02:03:01.545Z,99826.97
2023-03-31T02:05:37.952Z,99821.31
2023-03-31T02:08:15.211Z,99822.84
2023-03-31T02:10:43.893Z,99816.63
2023-03-31T02:13:13.209Z,99813.50
2023-03-31T02:15:43.578Z,99808.09
2023-03-31T02:18:17.157Z,99790.66
2023-03-31T02:20:47.511Z,99789.97
2023-03-31T02:23:16.981Z,99770.84
2023-03-31T02:25:53.426Z,99756.16
2023-03-31T02:28:26.716Z,99756.16
2023-03-31T02:31:13.363Z,99738.81
2023-03-31T02:33:39.903Z,99737.44
2023-03-31T02:36:07.669Z,99734.84
2023-03-31T02:38:40.668Z,99710.28
2023-03-31T02:41:08.150Z,99702.81
2023-03-31T02:43:34.574Z,99712.03
2023-03-31T02:46:01.065Z,99677.44
2023-03-31T02:48:31.509Z,99689.84
2023-03-31T02:51:40.196Z,99668.28
2023-03-31T02:54:33.918Z,99668.41
2023-03-31T02:57:03.437Z,99650.00
2023-03-31T02:59:51.934Z,99637.91
2023-03-31T03:02:35.442Z,99647.69
2023-03-31T03:05:22.550Z,99649.31
2023-03-31T03:08:19.297Z,99647.00
2023-03-31T03:10:54.834Z,99634.91
2023-03-31T03:13:47.704Z,99619.22
2023-03-31T03:16:36.090Z,99620.34
2023-03-31T03:19:06.156Z,99605.94
2023-03-31T03:21:33.314Z,99599.75
2023-03-31T03:24:00.165Z,99599.31
2023-03-31T03:26:28.531Z,99579.00
2023-03-31T03:28:56.699Z,99604.38
2023-03-31T03:31:24.236Z,99597.06
2023-03-31T03:33:51.385Z,99599.81
2023-03-31T03:36:17.995Z,99606.81
2023-03-31T03:38:45.321Z,99589.25
2023-03-31T03:41:12.032Z,99564.75
2023-03-31T03:43:38.467Z,99551.75
2023-03-31T03:46:05.594Z,99546.38
2023-03-31T03:48:32.294Z,99549.44
2023-03-31T03:51:02.065Z,99544.59
2023-03-31T03:53:28.650Z,99527.72
2023-03-31T03:55:55.437Z,99531.66
2023-03-31T03:58:21.910Z,99535.25
2023-03-31T04:00:48.345Z,99534.97
2023-03-31T04:03:15.208Z,99530.53
2023-03-31T04:05:42.224Z,99524.97
2023-03-31T04:08:08.942Z,99499.50
2023-03-31T04:10:35.987Z,99507.03
2023-03-31T04:13:02.504Z,99485.16
2023-03-31T04:15:28.948Z,99496.91
2023-03-31T04:17:58.209Z,99481.22
2023-03-31T04:20:30.539Z,99485.31
2023-03-31T04:22:56.917Z,99464.72
2023-03-31T04:25:23.598Z,99438.75
2023-03-31T04:27:54.912Z,99448.56
2023-03-31T04:30:23.128Z,99438.13
2023-03-31T04:32:56.272Z,99430.75
2023-03-31T04:35:24.866Z,99421.94
2023-03-31T04:37:58.520Z,99423.38
2023-03-31T04:40:25.820Z,99412.91
2023-03-31T04:42:52.346Z,99408.81
2023-03-31T04:45:18.878Z,99396.56
2023-03-31T04:47:45.387Z,99388.75
2023-03-31T04:50:15.314Z,99376.16
2023-03-31T04:52:42.743Z,99368.63
2023-03-31T04:55:09.757Z,99360.28
2023-03-31T04:57:37.209Z,99355.56
2023-03-31T05:00:08.234Z,99344.28
2023-03-31T05:02:34.944Z,99340.97
2023-03-31T05:05:01.475Z,99346.38
2023-03-31T05:07:27.948Z,99342.47
2023-03-31T05:09:54.411Z,99334.16
2023-03-31T05:12:20.903Z,99333.63
2023-03-31T05:14:47.538Z,99330.19
2023-03-31T05:17:13.939Z,99321.25
2023-03-31T05:19:40.652Z,99312.44
2023-03-31T05:22:07.045Z,99319.28
2023-03-31T05:24:33.489Z,99311.44
2023-03-31T05:26:59.911Z,99308.56
2023-03-31T05:29:26.440Z,99303.00
2023-03-31T05:31:53.857Z,99303.16
2023-03-31T05:34:20.891Z,99298.78
2023-03-31T05:36:53.450Z,99291.25
2023-03-31T05:39:20.379Z,99291.25
2023-03-31T05:41:46.857Z,99280.47
2023-03-31T05:44:13.351Z,99290.31
2023-03-31T05:46:39.786Z,99272.81
2023-03-31T05:49:07.071Z,99282.16
2023-03-31T05:51:34.176Z,99269.22
2023-03-31T05:54:00.793Z,99263.84
2023-03-31T05:56:27.565Z,99271.53
2023-03-31T05:58:54.043Z,99274.16
2023-03-31T06:01:22.749Z,99271.84
2023-03-31T06:03:49.842Z,99268.09
2023-03-31T06:06:16.531Z,99257.81
2023-03-31T06:08:44.484Z,99258.47
2023-03-31T06:11:14.201Z,99253.06
2023-03-31T06:13:41.285Z,99252.28
2023-03-31T06:16:09.884Z,99251.13
2023-03-31T06:18:36.695Z,99248.69
2023-03-31T06:21:04.270Z,99251.28
2023-03-31T06:23:31.666Z,99246.06
2023-03-31T06:26:07.166Z,99241.50
2023-03-31T06:28:34.921Z,99239.03
2023-03-31T06:31:13.424Z,99236.44
2023-03-31T06:33:41.218Z,99246.72
2023-03-31T06:36:08.745Z,99244.75
2023-03-31T06:38:36.895Z,99237.59
2023-03-31T06:41:03.376Z,99231.69
2023-03-31T06:43:30.073Z,99232.53
2023-03-31T06:45:56.806Z,99247.41
2023-03-31T06:48:25.205Z,99224.72
2023-03-31T06:50:53.739Z,99223.59
2023-03-31T06:53:22.112Z,99234.84
2023-03-31T06:55:48.681Z,99216.06
2023-03-31T06:58:15.123Z,99205.97
2023-03-31T07:00:41.541Z,99200.75
2023-03-31T07:03:09.096Z,99189.81
2023-03-31T07:05:35.602Z,99192.25
2023-03-31T07:08:02.578Z,99197.16
2023-03-31T07:10:31.372Z,99206.63
2023-03-31T07:12:58.101Z,99207.44
2023-03-31T07:15:25.824Z,99216.75
2023-03-31T07:17:54.002Z,99193.00
2023-03-31T07:20:20.748Z,99199.06
2023-03-31T07:22:48.899Z,99204.38
2023-03-31T07:25:17.219Z,99199.16
2023-03-31T07:27:44.600Z,99204.13
2023-03-31T07:30:19.668Z,99204.75
2023-03-31T07:32:48.014Z,99196.56
2023-03-31T07:35:14.858Z,99187.31
2023-03-31T07:37:44.329Z,99184.81
2023-03-31T07:40:18.477Z,99182.94
2023-03-31T07:42:49.135Z,99182.66
2023-03-31T07:45:16.738Z,99183.72
2023-03-31T07:47:46.362Z,99183.94
2023-03-31T07:50:14.988Z,99167.16
2023-03-31T07:52:43.100Z,99180.94
2023-03-31T07:55:12.082Z,99186.59
2023-03-31T07:57:38.683Z,99191.22
2023-03-31T08:00:09.436Z,99181.81
2023-03-31T08:02:36.314Z,99186.22
2023-03-31T08:05:03.398Z,99195.59
2023-03-31T08:07:31.022Z,99178.19
2023-03-31T08:09:58.540Z,99172.16
2023-03-31T08:12:25.361Z,99165.47
2023-03-31T08:14:51.874Z,99174.16
2023-03-31T08:17:18.503Z,99172.19
2023-03-31T08:19:44.924Z,99164.84
2023-03-31T08:22:11.456Z,99166.66
2023-03-31T08:24:37.936Z,99165.00
2023-03-31T08:27:04.619Z,99163.81
2023-03-31T08:29:31.276Z,99161.16
2023-03-31T08:31:57.810Z,99164.06
2023-03-31T08:34:24.347Z,99154.34
2023-03-31T08:36:50.812Z,99153.66
2023-03-31T08:39:17.235Z,99144.59
2023-03-31T08:42:10.351Z,99144.59
2023-03-31T08:44:44.743Z,99150.53
2023-03-31T08:47:18.797Z,99130.69
2023-03-31T08:49:53.604Z,99137.56
2023-03-31T08:52:27.129Z,99135.63
2023-03-31T08:54:59.586Z,99136.81
2023-03-31T08:57:32.267Z,99142.91
2023-03-31T09:00:06.998Z,99144.44
2023-03-31T09:02:57.943Z,99150.72
2023-03-31T09:05:59.427Z,99143.19
2023-03-31T09:08:36.136Z,99151.38
2023-03-31T09:11:34.945Z,99138.63
2023-03-31T09:14:16.222Z,99130.47
2023-03-31T09:16:59.618Z,99131.78
2023-03-31T09:19:48.539Z,99120.47
2023-03-31T09:22:26.488Z,99129.31
2023-03-31T09:25:01.314Z,99121.00
2023-03-31T09:27:31.335Z,99102.03
2023-03-31T09:30:01.227Z,99118.91
2023-03-31T09:32:33.208Z,99101.97
2023-03-31T09:35:16.946Z,99098.38
2023-03-31T09:37:43.622Z,99115.09
2023-03-31T09:40:16.825Z,99098.66
2023-03-31T09:42:43.394Z,99106.78
2023-03-31T09:45:18.566Z,99109.69
2023-03-31T09:47:50.216Z,99100.31
2023-03-31T09:50:18.146Z,99102.47
2023-03-31T09:52:50.457Z,99098.06
2023-03-31T09:55:49.437Z,99105.78
2023-03-31T09:58:17.362Z,99099.97
2023-03-31T10:00:58.016Z,99094.09
2023-03-31T10:03:25.050Z,99087.66
2023-03-31T10:05:54.456Z,99082.53
2023-03-31T10:08:38.311Z,99073.69
2023-03-31T10:11:04.903Z,99089.00
2023-03-31T10:13:48.257Z,99074.56
2023-03-31T10:16:23.980Z,99059.53
2023-03-31T10:18:50.759Z,99061.13
2023-03-31T10:21:23.968Z,99055.84
2023-03-31T10:23:51.430Z,99057.97
2023-03-31T10:26:25.732Z,99036.63
2023-03-31T10:28:55.141Z,99043.63
2023-03-31T10:31:36.612Z,99032.13
2023-03-31T10:34:17.110Z,99036.44
2023-03-31T10:36:51.879Z,99069.03
2023-03-31T10:39:19.916Z,99079.91
2023-03-31T10:41:53.340Z,99098.47
2023-03-31T10:44:39.358Z,99110.06
2023-03-31T10:47:17.959Z,99105.16
2023-03-31T10:49:47.644Z,99096.84
2023-03-31T10:52:22.974Z,99092.88
2023-03-31T10:55:13.292Z,99099.25
2023-03-31T10:58:09.281Z,99100.03
2023-03-31T11:00:43.875Z,99097.59
2023-03-31T11:03:19.405Z,99101.34
2023-03-31T11:05:51.858Z,99079.28
2023-03-31T11:08:42.441Z,99096.13
2023-03-31T11:11:31.165Z,99086.47
2023-03-31T11:14:19.419Z,99084.19
2023-03-31T11:17:07.395Z,99066.19
2023-03-31T11:19:52.474Z,99062.41
2023-03-31T11:22:34.830Z,99051.72
2023-03-31T11:25:20.779Z,99054.16
2023-03-31T11:28:22.765Z,99045.44
2023-03-31T11:31:15.660Z,99041.00
2023-03-31T11:34:04.000Z,99037.06
2023-03-31T11:36:50.678Z,99036.88
2023-03-31T11:39:30.995Z,99031.72
2023-03-31T11:42:03.628Z,99033.97
2023-03-31T11:44:41.789Z,99027.00
2023-03-31T11:47:17.584Z,99027.88
2023-03-31T11:49:53.307Z,99011.47
2023-03-31T11:52:30.526Z,99020.72
2023-03-31T11:55:03.426Z,99021.91
2023-03-31T11:57:36.349Z,99012.16
2023-03-31T12:00:16.760Z,99017.06
2023-03-31T12:02:58.486Z,99021.41
2023-03-31T12:05:28.220Z,99010.91
2023-03-31T12:08:36.995Z,99028.81
2023-03-31T12:11:10.994Z,99036.13
2023-03-31T12:13:51.145Z,99032.25
2023-03-31T12:16:26.573Z,99021.78
2023-03-31T12:19:05.969Z,99003.88
2023-03-31T12:21:34.263Z,99009.78
2023-03-31T12:24:00.752Z,99014.91
2023-03-31T12:26:33.471Z,98992.97
2023-03-31T12:29:06.713Z,99008.91
2023-03-31T12:31:44.269Z,98991.81
2023-03-31T12:34:16.336Z,98979.41
2023-03-31T12:37:10.719Z,98981.13
2023-03-31T12:40:01.535Z,98990.53
2023-03-31T12:42:54.701Z,98990.06
2023-03-31T12:45:29.144Z,99001.47
2023-03-31T12:48:11.605Z,98986.63
2023-03-31T12:50:49.388Z,98993.81
2023-03-31T12:53:39.426Z,98983.31
2023-03-31T12:56:06.460Z,98995.44
2023-03-31T12:58:39.038Z,98986.38
2023-03-31T13:01:20.249Z,98995.88
2023-03-31T13:04:07.025Z,98967.34
2023-03-31T13:06:33.602Z,98973.19
2023-03-31T13:09:02.592Z,98942.19
2023-03-31T13:11:37.865Z,98973.00
2023-03-31T13:14:19.441Z,98953.16
2023-03-31T13:16:47.023Z,98960.81
2023-03-31T13:19:31.877Z,98957.50
2023-03-31T13:22:01.262Z,98980.91
2023-03-31T13:24:31.068Z,98975.78
2023-03-31T13:27:00.922Z,98936.16
2023-03-31T13:29:43.698Z,98927.75
2023-03-31T13:32:12.817Z,98935.53
2023-03-31T13:34:43.975Z,98958.53
2023-03-31T13:37:29.251Z,98983.25
2023-03-31T13:40:27.035Z,98940.56
2023-03-31T13:43:23.712Z,98949.94
2023-03-31T13:46:14.492Z,98945.72
2023-03-31T13:48:52.127Z,98933.91
2023-03-31T13:51:30.039Z,98945.03
2023-03-31T13:54:12.663Z,98942.59
2023-03-31T13:56:55.127Z,98930.56
2023-03-31T13:59:24.295Z,98933.09
2023-03-31T14:02:35.525Z,98928.56
2023-03-31T14:05:53.350Z,98920.66
2023-03-31T14:08:38.391Z,98930.31
2023-03-31T14:11:25.286Z,98925.72
2023-03-31T14:14:17.925Z,98907.50
2023-03-31T14:16:48.490Z,98907.91
2023-03-31T14:20:08.006Z,98920.28
2023-03-31T14:22:51.247Z,98896.78
2023-03-31T14:25:53.194Z,98906.44
2023-03-31T14:28:24.824Z,98894.50
2023-03-31T14:30:54.220Z,98925.03
2023-03-31T14:33:25.051Z,98895.22
2023-03-31T14:36:02.604Z,98896.00
2023-03-31T14:38:30.003Z,98892.22
2023-03-31T14:41:00.851Z,98900.31
2023-03-31T14:43:33.531Z,98913.88
2023-03-31T14:46:01.762Z,98911.97
2023-03-31T14:48:31.626Z,98930.25
2023-03-31T14:51:01.329Z,98926.53
2023-03-31T14:53:28.291Z,98929.88
2023-03-31T14:56:15.002Z,98953.94
2023-03-31T14:58:46.781Z,98965.22
2023-03-31T15:01:18.966Z,98977.88
2023-03-31T15:03:46.845Z,98956.13
2023-03-31T15:06:14.144Z,98939.59
2023-03-31T15:08:41.228Z,98955.38
2023-03-31T15:11:19.087Z,98951.44
2023-03-31T15:14:03.401Z,98958.69
2023-03-31T15:16:34.889Z,98966.34
2023-03-31T15:19:10.785Z,98977.41
2023-03-31T15:21:38.884Z,98986.56
2023-03-31T15:24:05.852Z,98959.53
2023-03-31T15:29:32.573Z,98941.94
2023-03-31T15:31:59.677Z,98925.47
2023-03-31T15:34:33.150Z,98947.44
2023-03-31T15:37:01.030Z,98940.25
2023-03-31T15:39:32.222Z,98923.13
2023-03-31T15:42:01.415Z,98942.34
2023-03-31T15:44:29.756Z,98940.56
2023-03-31T15:47:01.838Z,98940.56
2023-03-31T15:49:29.516Z,98937.59
2023-03-31T15:52:01.231Z,98935.97
2023-03-31T15:54:33.480Z,98938.56
2023-03-31T15:57:02.076Z,98934.78
2023-03-31T15:59:41.643Z,98936.25
2023-03-31T16:02:23.029Z,98936.53
2023-03-31T16:04:51.488Z,98929.31
2023-03-31T16:07:28.168Z,98918.53
2023-03-31T16:10:00.847Z,98926.72
2023-03-31T16:12:33.369Z,98926.38
2023-03-31T16:15:10.732Z,98905.16
2023-03-31T16:17:54.373Z,98928.66
2023-03-31T16:20:37.153Z,98925.53
2023-03-31T16:23:17.155Z,98900.88
2023-03-31T16:25:44.456Z,98909.81
2023-03-31T16:28:17.581Z,98932.38
2023-03-31T16:30:45.358Z,98921.13
2023-03-31T16:33:17.839Z,98919.19
2023-03-31T16:35:51.149Z,98910.97
2023-03-31T16:38:18.276Z,98920.28
2023-03-31T16:40:50.649Z,98916.56
2023-03-31T16:43:23.956Z,98907.25
2023-03-31T16:45:52.899Z,98895.84
2023-03-31T16:48:20.961Z,98909.75
2023-03-31T16:50:49.907Z,98910.41
2023-03-31T16:53:18.890Z,98908.16
2023-03-31T16:55:45.608Z,98890.53
2023-03-31T16:58:12.658Z,98901.81
2023-03-31T17:00:40.638Z,98889.06
2023-03-31T17:03:09.098Z,98907.56
2023-03-31T17:05:44.456Z,98903.13
2023-03-31T17:08:12.493Z,98878.81
2023-03-31T17:10:40.238Z,98877.38
2023-03-31T17:13:07.762Z,98900.72
2023-03-31T17:15:37.928Z,98890.09
2023-03-31T17:18:04.915Z,98921.31
2023-03-31T17:20:31.707Z,98907.13
2023-03-31T17:22:58.733Z,98905.00
2023-03-31T17:25:25.688Z,98936.22
2023-03-31T17:27:52.296Z,98923.47
2023-03-31T17:30:19.080Z,98884.47
2023-03-31T17:32:45.692Z,98917.59
2023-03-31T17:35:13.283Z,98926.09
2023-03-31T17:37:39.761Z,98908.53
2023-03-31T17:40:07.242Z,98916.38
2023-03-31T17:42:33.681Z,98926.66
2023-03-31T17:45:00.299Z,98905.13
2023-03-31T17:47:27.032Z,98898.41
2023-03-31T17:49:53.564Z,98916.41
2023-03-31T17:52:20.020Z,98914.44
2023-03-31T17:54:48.653Z,98925.69
2023-03-31T17:57:16.731Z,98920.63
2023-03-31T17:59:43.235Z,98913.44
2023-03-31T18:02:13.231Z,98921.44
2023-03-31T18:04:39.685Z,98921.63
2023-03-31T18:07:06.905Z,98915.91
2023-03-31T18:09:33.823Z,98922.75
2023-03-31T18:12:00.532Z,98912.94
2023-03-31T18:14:27.655Z,98917.19
2023-03-31T18:16:54.638Z,98919.81
2023-03-31T18:19:21.182Z,98927.66
2023-03-31T18:21:47.609Z,98928.78
2023-03-31T18:24:14.036Z,98928.63
2023-03-31T18:26:40.638Z,98922.41
2023-03-31T18:29:07.099Z,98925.69
2023-03-31T18:31:33.587Z,98928.47
2023-03-31T18:34:00.057Z,98920.50
2023-03-31T18:36:28.027Z,98924.91
2023-03-31T18:38:55.674Z,98923.75
2023-03-31T18:41:23.045Z,98936.66
2023-03-31T18:43:52.068Z,98893.38
2023-03-31T18:46:19.601Z,98943.53
2023-03-31T18:48:46.120Z,98933.56
2023-03-31T18:51:13.533Z,98936.19
2023-03-31T18:53:40.077Z,98951.84
2023-03-31T18:56:06.597Z,98948.75
2023-03-31T18:58:33.190Z,98943.03
2023-03-31T19:01:01.299Z,98987.09
2023-03-31T19:03:28.550Z,98946.09
2023-03-31T19:06:07.337Z,98943.00
2023-03-31T19:08:33.790Z,98946.25
2023-03-31T19:11:05.272Z,98932.06
2023-03-31T19:13:31.921Z,98928.47
2023-03-31T19:15:58.316Z,98942.66
2023-03-31T19:18:26.481Z,98938.78
2023-03-31T19:20:54.510Z,98947.91
2023-03-31T19:23:20.963Z,98959.34
2023-03-31T19:25:52.124Z,98937.44
2023-03-31T19:28:19.150Z,98940.22
2023-03-31T19:30:48.390Z,98946.94
2023-03-31T19:33:15.117Z,98956.06
2023-03-31T19:35:43.961Z,98955.06
2023-03-31T19:38:10.533Z,98946.75
2023-03-31T19:40:37.741Z,98934.53
2023-03-31T19:43:04.709Z,98957.19
2023-03-31T19:45:31.546Z,98956.19
2023-03-31T19:47:58.347Z,98949.50
2023-03-31T19:50:24.771Z,98946.88
2023-03-31T19:52:51.259Z,98953.84
2023-03-31T19:55:17.678Z,98923.34
2023-03-31T19:57:44.153Z,98942.44
2023-03-31T20:00:12.309Z,98950.44
2023-03-31T20:02:38.919Z,98928.69
2023-03-31T20:05:05.974Z,98940.00
2023-03-31T20:07:32.399Z,98939.50
2023-03-31T20:09:58.884Z,98924.78
2023-03-31T20:12:25.275Z,98927.41
2023-03-31T20:14:51.676Z,98938.34
2023-03-31T20:17:19.417Z,98941.56
2023-03-31T20:19:46.142Z,98940.75
2023-03-31T20:22:12.674Z,98931.44
2023-03-31T20:24:39.099Z,98944.63
2023-03-31T20:27:05.604Z,98945.91
2023-03-31T20:29:32.153Z,98947.06
2023-03-31T20:31:58.770Z,98934.81
2023-03-31T20:34:27.461Z,98929.09
2023-03-31T20:36:54.209Z,98940.38
2023-03-31T20:39:20.970Z,98938.56
2023-03-31T20:41:47.489Z,98934.00
2023-03-31T20:44:15.723Z,98940.38
2023-03-31T20:46:43.503Z,98939.56
2023-03-31T20:49:10.087Z,98912.28
2023-03-31T20:51:37.733Z,98941.88
2023-03-31T20:54:04.778Z,98934.50
2023-03-31T20:56:34.945Z,98938.44
2023-03-31T20:59:02.056Z,98928.31
2023-03-31T21:01:32.829Z,98951.00
2023-03-31T21:04:01.345Z,98944.47
2023-03-31T21:06:36.621Z,98912.81
2023-03-31T21:09:03.352Z,98935.81
2023-03-31T21:11:29.817Z,98928.00
2023-03-31T21:13:56.315Z,98939.06
2023-03-31T21:16:23.623Z,98949.97
2023-03-31T21:18:51.733Z,98933.88
2023-03-31T21:21:19.539Z,98950.31
2023-03-31T21:23:46.634Z,98954.22
2023-03-31T21:26:15.596Z,98961.53
2023-03-31T21:28:44.180Z,98960.03
2023-03-31T21:31:18.773Z,98948.59
2023-03-31T21:33:47.161Z,98940.44
2023-03-31T21:36:16.406Z,98946.78
2023-03-31T21:38:44.581Z,98935.72
2023-03-31T21:41:19.461Z,98947.81
2023-03-31T21:43:46.266Z,98934.59
2023-03-31T21:46:19.770Z,98948.44
2023-03-31T21:48:48.785Z,98942.91
2023-03-31T21:51:16.412Z,98937.41
2023-03-31T21:53:42.962Z,98933.97
2023-03-31T21:56:09.413Z,98936.59
2023-03-31T21:58:36.121Z,98927.78
2023-03-31T22:01:04.321Z,98925.50
2023-03-31T22:03:34.589Z,98925.00
2023-03-31T22:06:04.827Z,98934.28
2023-03-31T22:08:31.629Z,98934.44
2023-03-31T22:11:00.246Z,98926.78
2023-03-31T22:13:28.053Z,98931.94
2023-03-31T22:15:54.689Z,98937.84
2023-03-31T22:18:22.021Z,98931.28
2023-03-31T22:20:49.585Z,98926.59
2023-03-31T22:23:16.707Z,98920.53
2023-03-31T22:25:43.506Z,98914.38
2023-03-31T22:28:10.354Z,98917.47
2023-03-31T22:30:36.981Z,98918.13
2023-03-31T22:33:03.894Z,98911.78
2023-03-31T22:35:30.686Z,98908.50
2023-03-31T22:37:57.913Z,98919.59
2023-03-31T22:40:24.353Z,98917.13
2023-03-31T22:42:50.804Z,98912.06
2023-03-31T22:45:17.327Z,98913.88
2023-03-31T22:47:44.057Z,98904.88
2023-03-31T22:50:11.898Z,98907.84
2023-03-31T22:52:38.356Z,98901.78
2023-03-31T22:55:06.217Z,98915.00
2023-03-31T22:57:33.676Z,98921.84
2023-03-31T23:00:00.657Z,98902.25
2023-03-31T23:02:27.274Z,98904.84
2023-03-31T23:04:53.729Z,98908.66
2023-03-31T23:07:21.877Z,98920.53
2023-03-31T23:09:48.626Z,98904.91
2023-03-31T23:12:15.429Z,98917.28
2023-03-31T23:14:42.416Z,98922.84
2023-03-31T23:17:09.032Z,98907.84
2023-03-31T23:19:35.491Z,98914.22
2023-03-31T23:22:02.616Z,98928.06
2023-03-31T23:24:30.002Z,98924.50
2023-03-31T23:26:56.547Z,98918.94
2023-03-31T23:29:23.074Z,98922.69
2023-03-31T23:31:52.609Z,98905.75
2023-03-31T23:34:19.075Z,98929.22
2023-03-31T23:36:45.500Z,98915.34
2023-03-31T23:39:11.971Z,98908.84
2023-03-31T23:41:38.502Z,98917.31
2023-03-31T23:44:06.196Z,98916.53
2023-03-31T23:46:33.478Z,98925.97
2023-03-31T23:49:02.547Z,98894.78
2023-03-31T23:51:28.972Z,98907.88
2023-03-31T23:53:55.621Z,98912.59
2023-03-31T23:56:22.274Z,98893.31
2023-03-31T23:58:48.731Z,98901.50
